Time;durP1;ratioP1;P1;durP2;ratioP2;P2;SDS_P1;SDS_P2;PMS_P1;PMS_P2;Temp;Humidity;BMP_temperature;BMP_pressure;BME280_temperature;BME280_humidity;BME280_pressure;Samples;Min_cycle;Max_cycle;Signal;HPM_P1;HPM_P2
2023/08/06 00:00:27;;;;;;;10.20;7.50;;;17.20;99.90;;;;;;5145203;28;20295;-45
2023/08/06 00:02:58;;;;;;;8.43;7.70;;;17.20;99.90;;;;;;5134073;28;20189;-45
2023/08/06 00:05:28;;;;;;;9.83;7.57;;;17.20;99.90;;;;;;5142449;28;20433;-45
2023/08/06 00:07:59;;;;;;;7.97;7.30;;;17.20;99.90;;;;;;5148249;28;20180;-45
2023/08/06 00:10:30;;;;;;;9.13;8.23;;;17.20;99.90;;;;;;5143967;28;20605;-44
2023/08/06 00:13:00;;;;;;;12.33;8.23;;;17.10;99.90;;;;;;5143893;28;20265;-44
2023/08/06 00:15:31;;;;;;;8.40;7.57;;;17.20;99.90;;;;;;5145645;28;20252;-45
2023/08/06 00:18:01;;;;;;;8.73;7.93;;;17.20;99.90;;;;;;5137249;28;20185;-45
2023/08/06 00:20:32;;;;;;;9.57;8.60;;;17.10;99.90;;;;;;5135649;28;20206;-45
2023/08/06 00:23:03;;;;;;;9.50;8.40;;;17.10;99.90;;;;;;5138709;28;20550;-45
2023/08/06 00:25:33;;;;;;;9.93;8.50;;;17.10;99.90;;;;;;5147643;28;20265;-44
2023/08/06 00:28:04;;;;;;;8.73;7.50;;;17.10;99.90;;;;;;5135679;28;20238;-45
2023/08/06 00:30:34;;;;;;;14.43;7.80;;;17.10;99.90;;;;;;5135821;28;20206;-45
2023/08/06 00:33:05;;;;;;;10.07;7.67;;;17.10;99.90;;;;;;5139767;28;20555;-45
2023/08/06 00:35:35;;;;;;;8.00;7.30;;;17.10;99.90;;;;;;5152496;28;20178;-45
2023/08/06 00:38:06;;;;;;;10.80;8.10;;;17.10;99.90;;;;;;5136955;28;20182;-45
2023/08/06 00:40:37;;;;;;;7.87;7.30;;;17.10;99.90;;;;;;5146506;28;20632;-45
2023/08/06 00:43:08;;;;;;;9.63;8.70;;;17.10;99.90;;;;;;5130132;28;20182;-45
2023/08/06 00:45:38;;;;;;;8.90;8.13;;;17.10;99.90;;;;;;5143271;28;20174;-44
2023/08/06 00:48:09;;;;;;;8.20;7.43;;;17.10;99.90;;;;;;5146317;28;20468;-45
2023/08/06 00:50:40;;;;;;;7.97;6.93;;;17.20;99.90;;;;;;5146764;28;20206;-45
2023/08/06 00:53:11;;;;;;;8.03;7.33;;;17.20;99.90;;;;;;5150441;28;20181;-45
2023/08/06 00:55:45;;;;;;;13.20;7.50;;;17.10;99.90;;;;;;5144524;28;20572;-44
2023/08/06 00:58:17;;;;;;;7.10;6.60;;;17.10;99.90;;;;;;5143644;28;20642;-46
2023/08/06 01:00:48;;;;;;;8.63;7.93;;;17.10;99.90;;;;;;5141895;28;20456;-44
2023/08/06 01:03:18;;;;;;;8.97;8.07;;;17.10;99.90;;;;;;5136486;28;20464;-45
2023/08/06 01:05:50;;;;;;;8.60;7.70;;;17.00;99.90;;;;;;5144788;28;20276;-45
2023/08/06 01:08:45;;;;;;;6.90;6.30;;;17.10;99.90;;;;;;5141152;28;20186;-44
2023/08/06 01:11:54;;;;;;;7.20;6.57;;;17.10;99.90;;;;;;5141682;28;20454;-45
2023/08/06 01:15:02;;;;;;;6.90;6.17;;;17.10;99.90;;;;;;5119820;28;20440;-44
2023/08/06 01:17:35;;;;;;;10.23;7.40;;;17.10;99.90;;;;;;5138036;28;20476;-45
2023/08/06 01:20:06;;;;;;;7.13;6.40;;;17.10;99.90;;;;;;5145475;28;21858;-45
2023/08/06 01:22:37;;;;;;;8.00;7.20;;;17.10;99.90;;;;;;5143434;28;20520;-44
2023/08/06 01:25:08;;;;;;;9.90;7.27;;;17.10;99.90;;;;;;5138745;28;20518;-45
2023/08/06 01:27:49;;;;;;;8.33;6.73;;;17.20;99.90;;;;;;5141628;28;20299;-45
2023/08/06 01:30:29;;;;;;;6.80;6.13;;;17.10;99.90;;;;;;5142318;28;20514;-45
2023/08/06 01:33:03;;;;;;;7.43;6.80;;;17.10;99.90;;;;;;5118174;28;20442;-45
2023/08/06 01:35:36;;;;;;;8.40;7.60;;;17.00;99.90;;;;;;5153008;28;20469;-44
2023/08/06 01:38:07;;;;;;;7.57;6.87;;;16.90;99.90;;;;;;5150919;28;20499;-48
2023/08/06 01:40:38;;;;;;;8.37;7.53;;;16.90;99.90;;;;;;5144721;28;20807;-44
2023/08/06 01:43:09;;;;;;;7.70;6.93;;;16.80;99.90;;;;;;5135250;28;20434;-45
2023/08/06 01:45:39;;;;;;;8.77;6.67;;;16.80;99.90;;;;;;5139489;28;21159;-45
2023/08/06 01:48:10;;;;;;;8.23;6.67;;;16.80;99.90;;;;;;5152860;28;20208;-45
2023/08/06 01:50:40;;;;;;;9.70;6.20;;;16.80;99.90;;;;;;5151432;28;20198;-44
2023/08/06 01:53:11;;;;;;;8.90;7.53;;;16.80;99.90;;;;;;5154063;28;20178;-44
2023/08/06 01:55:41;;;;;;;7.80;7.10;;;16.70;99.90;;;;;;5146849;28;20198;-45
2023/08/06 01:58:12;;;;;;;8.83;7.93;;;16.70;99.90;;;;;;5143888;28;20694;-44
2023/08/06 02:00:43;;;;;;;8.20;7.50;;;16.60;99.90;;;;;;5140866;28;20230;-45
2023/08/06 02:03:13;;;;;;;7.80;7.20;;;16.60;99.90;;;;;;5144327;28;20709;-44
2023/08/06 02:05:45;;;;;;;7.97;7.20;;;16.50;99.90;;;;;;5146177;28;20187;-46
2023/08/06 02:08:16;;;;;;;9.80;8.77;;;16.50;99.90;;;;;;5152291;28;20193;-44
2023/08/06 02:10:46;;;;;;;9.43;7.93;;;16.50;99.90;;;;;;5142649;28;20469;-44
2023/08/06 02:13:17;;;;;;;10.63;9.00;;;16.40;99.90;;;;;;5146003;28;20216;-45
2023/08/06 02:15:48;;;;;;;11.10;8.53;;;16.50;99.90;;;;;;5133535;28;20598;-45
2023/08/06 02:18:18;;;;;;;11.73;8.17;;;16.50;99.90;;;;;;5146410;28;20188;-44
2023/08/06 02:20:57;;;;;;;9.57;8.57;;;16.50;99.90;;;;;;5132784;28;20709;-45
2023/08/06 02:23:28;;;;;;;11.30;8.70;;;16.40;99.90;;;;;;5140484;28;20692;-44
2023/08/06 02:26:02;;;;;;;11.77;9.37;;;16.40;99.90;;;;;;5141884;28;20473;-44
2023/08/06 02:28:33;;;;;;;10.37;9.43;;;16.40;99.90;;;;;;5143148;28;20200;-45
2023/08/06 02:31:04;;;;;;;10.13;9.07;;;16.40;99.90;;;;;;5125693;28;20457;-45
2023/08/06 02:33:34;;;;;;;10.40;9.30;;;16.40;99.90;;;;;;5140285;28;20188;-45
2023/08/06 02:36:05;;;;;;;9.40;8.40;;;16.40;99.90;;;;;;5140557;28;20190;-45
2023/08/06 02:38:36;;;;;;;10.60;9.53;;;16.40;99.90;;;;;;5143271;28;20198;-45
2023/08/06 02:41:06;;;;;;;8.70;8.00;;;16.40;99.90;;;;;;5136447;28;20214;-45
2023/08/06 02:43:38;;;;;;;8.23;7.63;;;16.40;99.90;;;;;;5134153;28;20187;-45
2023/08/06 02:46:09;;;;;;;10.57;9.00;;;16.40;99.90;;;;;;5148902;28;20201;-45
2023/08/06 02:48:39;;;;;;;8.97;8.13;;;16.40;99.90;;;;;;5140763;28;20491;-44
2023/08/06 02:51:10;;;;;;;10.20;9.13;;;16.30;99.90;;;;;;5133281;28;20249;-45
2023/08/06 02:53:41;;;;;;;13.20;9.70;;;16.30;99.90;;;;;;5140957;28;20217;-44
2023/08/06 02:56:11;;;;;;;10.87;9.77;;;16.30;99.90;;;;;;5144448;28;20189;-45
2023/08/06 02:58:42;;;;;;;11.27;10.00;;;16.20;99.90;;;;;;5146251;28;20220;-44
2023/08/06 03:01:12;;;;;;;10.67;9.60;;;16.20;99.90;;;;;;5146158;28;20240;-45
2023/08/06 03:03:43;;;;;;;11.53;10.37;;;16.20;99.90;;;;;;5140208;28;20511;-45
2023/08/06 03:06:14;;;;;;;10.83;8.93;;;16.20;99.90;;;;;;5143503;28;20217;-45
2023/08/06 03:08:44;;;;;;;10.63;9.50;;;16.10;99.90;;;;;;5152897;28;20190;-46
2023/08/06 03:11:15;;;;;;;13.70;9.33;;;16.10;99.90;;;;;;5143427;28;20572;-44
2023/08/06 03:13:50;;;;;;;12.53;8.00;;;16.00;99.90;;;;;;5143499;28;20186;-45
2023/08/06 03:16:20;;;;;;;10.60;8.73;;;16.00;99.90;;;;;;5126743;28;20196;-45
2023/08/06 03:18:51;;;;;;;10.20;8.47;;;16.00;99.90;;;;;;5143509;28;20452;-45
2023/08/06 03:21:21;;;;;;;11.90;8.57;;;16.00;99.90;;;;;;5149627;23;20237;-48
2023/08/06 03:23:52;;;;;;;9.77;8.83;;;16.00;99.90;;;;;;5120454;28;20321;-46
2023/08/06 03:26:23;;;;;;;10.10;8.67;;;16.00;99.90;;;;;;5137146;28;20303;-47
2023/08/06 03:28:53;;;;;;;10.80;7.53;;;15.90;99.90;;;;;;5148139;28;20317;-47
2023/08/06 03:31:24;;;;;;;13.13;8.43;;;15.90;99.90;;;;;;5145348;28;20618;-47
2023/08/06 03:33:54;;;;;;;10.17;9.17;;;15.90;99.90;;;;;;5138943;28;20186;-47
2023/08/06 03:36:25;;;;;;;10.47;9.57;;;15.90;99.90;;;;;;5145373;28;20182;-47
2023/08/06 03:38:56;;;;;;;10.53;9.00;;;15.80;99.90;;;;;;5153159;28;20541;-47
2023/08/06 03:41:26;;;;;;;10.20;9.20;;;15.80;99.90;;;;;;5145541;28;20337;-48
2023/08/06 03:43:57;;;;;;;12.93;8.50;;;15.80;99.90;;;;;;5150410;28;20292;-47
2023/08/06 03:46:27;;;;;;;9.27;8.37;;;15.70;99.90;;;;;;5138526;28;20554;-47
2023/08/06 03:48:58;;;;;;;11.60;8.90;;;15.80;99.90;;;;;;5126719;28;20268;-47
2023/08/06 03:51:29;;;;;;;9.27;8.37;;;15.80;99.90;;;;;;5135158;28;20232;-47
2023/08/06 03:53:59;;;;;;;12.80;8.47;;;15.80;99.90;;;;;;5134731;28;20189;-46
2023/08/06 03:56:30;;;;;;;10.40;6.77;;;15.80;99.90;;;;;;5135274;28;20230;-47
2023/08/06 03:59:00;;;;;;;8.60;7.70;;;15.80;99.90;;;;;;5126826;28;20344;-47
2023/08/06 04:01:31;;;;;;;8.30;7.60;;;15.80;99.90;;;;;;5123247;28;20209;-47
2023/08/06 04:04:02;;;;;;;9.27;8.03;;;15.80;99.90;;;;;;5118670;28;20556;-47
2023/08/06 04:06:33;;;;;;;11.23;7.20;;;15.80;99.90;;;;;;5128114;28;20194;-47
2023/08/06 04:09:03;;;;;;;7.73;7.10;;;15.80;99.90;;;;;;5119787;28;20178;-46
2023/08/06 04:11:34;;;;;;;8.57;7.87;;;15.80;99.90;;;;;;5129513;28;20292;-47
2023/08/06 04:14:05;;;;;;;13.80;6.40;;;15.80;99.90;;;;;;5141704;28;20193;-46
2023/08/06 04:16:35;;;;;;;7.53;6.93;;;15.80;99.90;;;;;;5139574;28;20695;-48
2023/08/06 04:19:06;;;;;;;9.87;7.70;;;15.80;99.90;;;;;;5145456;28;20174;-48
2023/08/06 04:21:36;;;;;;;9.60;8.17;;;15.90;99.90;;;;;;5143260;28;20736;-47
2023/08/06 04:24:07;;;;;;;8.03;7.43;;;16.10;99.90;;;;;;5141448;28;20214;-47
2023/08/06 04:26:37;;;;;;;8.33;7.57;;;15.90;99.90;;;;;;5130993;28;20217;-47
2023/08/06 04:29:08;;;;;;;7.70;7.10;;;15.90;99.90;;;;;;5118920;28;20186;-47
2023/08/06 04:31:39;;;;;;;8.00;7.40;;;15.90;99.90;;;;;;5132582;28;20210;-47
2023/08/06 04:34:09;;;;;;;7.27;6.60;;;16.00;99.90;;;;;;5135693;28;20716;-47
2023/08/06 04:36:40;;;;;;;7.43;6.73;;;16.00;99.90;;;;;;5131326;28;20205;-47
2023/08/06 04:39:10;;;;;;;8.07;7.40;;;16.00;99.90;;;;;;5140801;28;20181;-48
2023/08/06 04:41:41;;;;;;;7.33;6.73;;;16.00;99.90;;;;;;5147086;28;20234;-48
2023/08/06 04:44:12;;;;;;;6.70;6.17;;;16.00;99.90;;;;;;5138910;28;20272;-48
2023/08/06 04:46:42;;;;;;;8.90;7.50;;;16.00;99.90;;;;;;5146335;28;20206;-46
2023/08/06 04:49:13;;;;;;;8.23;7.43;;;16.00;99.90;;;;;;5154511;28;20182;-48
2023/08/06 04:51:43;;;;;;;9.10;7.80;;;15.90;99.90;;;;;;5127301;28;20230;-48
2023/08/06 04:54:14;;;;;;;11.10;7.47;;;15.90;99.90;;;;;;5122188;28;20181;-46
2023/08/06 04:56:45;;;;;;;10.20;8.23;;;15.80;99.90;;;;;;5121516;28;20243;-48
2023/08/06 04:59:15;;;;;;;10.67;9.07;;;15.90;99.90;;;;;;5140105;28;20177;-46
2023/08/06 05:01:46;;;;;;;7.80;7.00;;;16.00;99.90;;;;;;5140744;28;20229;-46
2023/08/06 05:04:16;;;;;;;8.23;7.47;;;15.90;99.90;;;;;;5124073;28;20217;-47
2023/08/06 05:06:48;;;;;;;8.73;8.03;;;16.00;99.90;;;;;;5131213;28;20214;-46
2023/08/06 05:09:19;;;;;;;8.60;6.90;;;16.10;99.90;;;;;;5123795;28;20182;-53
2023/08/06 05:11:50;;;;;;;7.97;7.37;;;16.10;99.90;;;;;;5144804;28;20413;-47
2023/08/06 05:14:21;;;;;;;6.87;6.37;;;16.20;99.90;;;;;;5125158;28;20593;-46
2023/08/06 05:16:51;;;;;;;6.17;5.67;;;16.30;99.90;;;;;;5118702;28;20282;-47
2023/08/06 05:19:22;;;;;;;6.63;6.13;;;16.30;99.90;;;;;;5132528;28;20197;-47
2023/08/06 05:21:52;;;;;;;7.23;6.50;;;16.40;99.90;;;;;;5128425;28;20198;-47
2023/08/06 05:24:23;;;;;;;6.57;5.80;;;16.40;99.90;;;;;;5122629;28;20625;-46
2023/08/06 05:26:54;;;;;;;6.37;5.77;;;16.50;99.90;;;;;;5146525;28;20221;-47
2023/08/06 05:29:24;;;;;;;7.13;6.47;;;16.50;99.90;;;;;;5123245;28;20214;-47
2023/08/06 05:31:55;;;;;;;6.97;6.27;;;16.60;99.90;;;;;;5119821;28;20746;-46
2023/08/06 05:34:26;;;;;;;6.63;6.13;;;16.60;99.90;;;;;;5131597;28;20189;-47
2023/08/06 05:36:56;;;;;;;5.60;5.20;;;16.70;99.90;;;;;;5143554;28;20186;-49
2023/08/06 05:39:27;;;;;;;5.07;4.70;;;16.70;99.90;;;;;;5130685;28;20236;-47
2023/08/06 05:41:57;;;;;;;4.50;4.33;;;16.80;99.90;;;;;;5114434;28;20225;-48
2023/08/06 05:44:28;;;;;;;5.20;4.90;;;16.90;99.90;;;;;;5135799;28;20192;-48
2023/08/06 05:46:58;;;;;;;5.57;5.17;;;16.90;99.90;;;;;;5132952;28;20296;-47
2023/08/06 05:49:29;;;;;;;7.00;4.67;;;17.00;99.90;;;;;;5134316;28;20185;-46
2023/08/06 05:52:00;;;;;;;4.60;3.93;;;17.00;99.90;;;;;;5141328;28;20253;-47
2023/08/06 05:54:30;;;;;;;5.90;5.40;;;17.00;99.90;;;;;;5145545;28;20259;-48
2023/08/06 05:57:01;;;;;;;5.60;5.10;;;17.20;99.90;;;;;;5140048;28;20193;-48
2023/08/06 05:59:32;;;;;;;8.23;5.90;;;16.90;99.90;;;;;;5137048;28;20190;-47
2023/08/06 06:02:02;;;;;;;5.90;5.37;;;16.90;99.90;;;;;;5118045;28;20201;-47
2023/08/06 06:04:33;;;;;;;4.67;4.37;;;16.80;99.90;;;;;;5139427;28;20193;-48
2023/08/06 06:07:04;;;;;;;4.80;4.40;;;16.80;99.90;;;;;;5131622;28;20236;-47
2023/08/06 06:09:35;;;;;;;5.83;5.43;;;16.80;99.90;;;;;;5137863;28;20181;-47
2023/08/06 06:12:06;;;;;;;4.57;4.27;;;16.80;99.90;;;;;;5140555;28;20201;-47
2023/08/06 06:14:38;;;;;;;6.50;6.00;;;16.70;99.90;;;;;;5130890;28;20194;-47
2023/08/06 06:17:08;;;;;;;8.53;6.50;;;16.70;99.90;;;;;;5127027;28;20473;-47
2023/08/06 06:19:39;;;;;;;9.63;6.50;;;16.70;99.90;;;;;;5130637;28;20938;-47
2023/08/06 06:22:10;;;;;;;6.47;5.90;;;16.70;99.90;;;;;;5130545;28;20200;-47
2023/08/06 06:24:40;;;;;;;7.50;6.70;;;16.80;99.90;;;;;;5120874;28;20367;-47
2023/08/06 06:27:11;;;;;;;8.63;7.33;;;16.80;99.90;;;;;;5137958;28;20200;-46
2023/08/06 06:29:42;;;;;;;8.27;5.87;;;16.90;99.90;;;;;;5146873;28;20200;-47
2023/08/06 06:32:12;;;;;;;8.03;6.77;;;16.90;99.90;;;;;;5142721;28;20268;-46
2023/08/06 06:34:43;;;;;;;7.83;7.10;;;17.00;99.90;;;;;;5145562;28;20241;-48
2023/08/06 06:37:13;;;;;;;5.63;5.23;;;17.00;99.90;;;;;;5148631;28;20228;-46
2023/08/06 06:39:44;;;;;;;8.60;7.87;;;17.00;99.90;;;;;;5138175;28;20297;-47
2023/08/06 06:42:15;;;;;;;8.33;7.60;;;17.00;99.90;;;;;;5128379;28;20637;-47
2023/08/06 06:44:45;;;;;;;6.93;6.50;;;16.90;99.90;;;;;;5125671;28;20245;-48
2023/08/06 06:47:16;;;;;;;6.33;5.83;;;17.00;99.90;;;;;;5117740;29;20206;-47
2023/08/06 06:49:46;;;;;;;9.33;8.43;;;17.00;99.90;;;;;;5134760;28;20233;-46
2023/08/06 06:52:17;;;;;;;8.77;7.97;;;17.10;99.90;;;;;;5145435;28;20198;-47
2023/08/06 06:54:48;;;;;;;8.00;7.20;;;17.10;99.90;;;;;;5126185;28;20261;-46
2023/08/06 06:57:18;;;;;;;8.87;8.07;;;17.10;99.90;;;;;;5148932;28;20315;-46
2023/08/06 06:59:49;;;;;;;9.37;8.60;;;17.10;99.90;;;;;;5144616;28;20643;-48
2023/08/06 07:02:20;;;;;;;9.30;6.60;;;17.00;99.90;;;;;;5149618;28;20185;-47
2023/08/06 07:04:50;;;;;;;7.77;7.17;;;17.10;99.90;;;;;;5148224;28;20268;-46
2023/08/06 07:07:21;;;;;;;7.03;6.53;;;17.20;99.90;;;;;;5138215;28;20280;-48
2023/08/06 07:09:51;;;;;;;5.40;4.97;;;17.30;99.90;;;;;;5142248;28;20656;-47
2023/08/06 07:12:23;;;;;;;4.83;4.50;;;17.40;99.90;;;;;;5139525;28;20185;-47
2023/08/06 07:14:54;;;;;;;4.67;4.27;;;17.50;99.90;;;;;;5148754;28;20181;-47
2023/08/06 07:17:25;;;;;;;5.47;4.97;;;17.50;99.90;;;;;;5133720;28;20536;-46
2023/08/06 07:19:55;;;;;;;6.73;5.80;;;17.60;99.90;;;;;;5141485;28;20241;-48
2023/08/06 07:22:26;;;;;;;5.33;4.93;;;17.70;99.90;;;;;;5143226;28;20189;-48
2023/08/06 07:24:56;;;;;;;6.60;5.97;;;17.80;99.90;;;;;;5135419;28;20257;-47
2023/08/06 07:27:27;;;;;;;6.27;5.67;;;18.00;99.90;;;;;;5139856;28;20208;-47
2023/08/06 07:29:58;;;;;;;6.43;5.83;;;18.10;99.90;;;;;;5132238;28;22097;-47
2023/08/06 07:32:29;;;;;;;6.10;5.53;;;18.20;99.90;;;;;;5127749;28;20183;-48
2023/08/06 07:35:00;;;;;;;5.73;5.20;;;18.20;99.90;;;;;;5139061;28;20305;-47
2023/08/06 07:37:31;;;;;;;6.00;5.60;;;18.20;99.90;;;;;;5121189;28;20273;-47
2023/08/06 07:40:02;;;;;;;4.97;4.57;;;18.20;99.90;;;;;;5134195;28;20541;-48
2023/08/06 07:42:32;;;;;;;7.40;6.80;;;18.20;99.90;;;;;;5128680;28;21100;-46
2023/08/06 07:45:03;;;;;;;7.00;6.40;;;18.30;99.90;;;;;;5140469;28;20597;-48
2023/08/06 07:47:34;;;;;;;7.40;6.80;;;18.20;99.90;;;;;;5123655;28;20210;-49
2023/08/06 07:50:05;;;;;;;8.77;7.23;;;18.30;99.90;;;;;;5138091;28;20465;-47
2023/08/06 07:52:35;;;;;;;7.47;6.97;;;18.20;99.90;;;;;;5126005;28;20212;-46
2023/08/06 07:55:06;;;;;;;7.40;6.80;;;18.20;99.90;;;;;;5145417;28;20441;-48
2023/08/06 07:57:37;;;;;;;8.23;7.43;;;18.10;99.90;;;;;;5152609;28;20186;-47
2023/08/06 08:00:09;;;;;;;14.53;7.50;;;18.00;99.90;;;;;;5139247;28;20210;-47
2023/08/06 08:02:40;;;;;;;7.07;6.37;;;17.90;99.90;;;;;;5119121;28;20510;-47
2023/08/06 08:05:10;;;;;;;7.40;6.90;;;17.80;99.90;;;;;;5133083;28;20445;-48
2023/08/06 08:07:41;;;;;;;8.67;7.87;;;17.80;99.90;;;;;;5138611;28;20343;-48
2023/08/06 08:10:12;;;;;;;7.87;7.13;;;17.80;99.90;;;;;;5144980;28;20724;-48
2023/08/06 08:12:42;;;;;;;8.10;7.40;;;17.70;99.90;;;;;;5146691;28;20602;-48
2023/08/06 08:15:13;;;;;;;8.73;8.03;;;17.70;99.90;;;;;;5127298;28;20183;-48
2023/08/06 08:17:43;;;;;;;8.30;7.67;;;17.70;99.90;;;;;;5141384;28;20747;-47
2023/08/06 08:20:16;;;;;;;10.90;8.87;;;17.80;99.90;;;;;;5123730;28;20226;-48
2023/08/06 08:22:47;;;;;;;9.43;8.53;;;17.90;99.90;;;;;;5130687;28;20198;-48
2023/08/06 08:25:17;;;;;;;8.10;7.30;;;17.90;99.90;;;;;;5142460;28;20448;-48
2023/08/06 08:27:48;;;;;;;8.67;7.87;;;17.90;99.90;;;;;;5136540;28;20481;-48
2023/08/06 08:30:19;;;;;;;8.80;8.00;;;17.90;99.90;;;;;;5150125;28;20205;-49
2023/08/06 08:32:49;;;;;;;7.50;6.80;;;17.90;99.90;;;;;;5148972;28;20188;-48
2023/08/06 08:35:20;;;;;;;7.50;6.90;;;18.00;99.90;;;;;;5142795;28;20227;-47
2023/08/06 08:37:51;;;;;;;8.97;8.07;;;18.10;99.90;;;;;;5157917;28;20201;-47
2023/08/06 08:40:28;;;;;;;9.93;8.10;;;18.20;99.90;;;;;;5121328;28;20276;-47
2023/08/06 08:43:02;;;;;;;7.90;7.20;;;18.30;99.90;;;;;;5120265;28;20492;-48
2023/08/06 08:45:35;;;;;;;8.53;7.73;;;18.40;99.90;;;;;;5126060;28;20512;-48
2023/08/06 08:48:06;;;;;;;10.40;9.30;;;18.50;99.90;;;;;;5125313;28;20477;-48
2023/08/06 08:50:37;;;;;;;10.00;8.40;;;18.50;99.90;;;;;;5126211;28;20457;-48
2023/08/06 08:53:10;;;;;;;10.00;9.00;;;18.60;99.90;;;;;;5138396;28;20493;-47
2023/08/06 08:55:42;;;;;;;9.93;8.93;;;18.80;99.90;;;;;;5142040;28;20225;-47
2023/08/06 08:58:13;;;;;;;10.20;9.20;;;18.80;99.90;;;;;;5125636;28;20540;-48
2023/08/06 09:00:46;;;;;;;9.17;8.20;;;18.90;99.90;;;;;;5125298;28;20587;-48
2023/08/06 09:03:17;;;;;;;8.87;8.07;;;18.90;99.90;;;;;;5139764;28;20432;-49
2023/08/06 09:05:51;;;;;;;11.83;9.97;;;19.00;99.90;;;;;;5135762;28;20441;-51
2023/08/06 09:08:31;;;;;;;9.13;8.23;;;19.00;99.90;;;;;;5123056;28;20433;-48
2023/08/06 09:11:02;;;;;;;11.50;10.30;;;19.00;99.90;;;;;;5139169;28;20493;-48
2023/08/06 09:13:33;;;;;;;12.50;11.00;;;19.10;99.90;;;;;;5145042;28;20421;-48
2023/08/06 09:16:03;;;;;;;12.70;9.57;;;19.10;99.90;;;;;;5129858;28;20841;-46
2023/08/06 09:18:34;;;;;;;12.53;9.73;;;19.10;99.90;;;;;;5145077;28;20205;-49
2023/08/06 09:21:05;;;;;;;11.00;9.80;;;19.20;99.90;;;;;;5142225;28;20213;-47
2023/08/06 09:23:35;;;;;;;10.03;8.90;;;19.20;99.90;;;;;;5123746;28;20229;-47
2023/08/06 09:26:06;;;;;;;11.10;10.20;;;19.40;99.90;;;;;;5140192;28;20181;-49
2023/08/06 09:28:39;;;;;;;12.43;10.23;;;19.50;99.90;;;;;;5141709;28;20185;-47
2023/08/06 09:31:10;;;;;;;12.53;10.50;;;19.50;99.90;;;;;;5143800;28;20202;-47
2023/08/06 09:33:41;;;;;;;10.70;9.60;;;19.50;99.90;;;;;;5139072;28;21497;-48
2023/08/06 09:36:11;;;;;;;9.53;8.60;;;19.50;99.90;;;;;;5142157;28;20429;-47
2023/08/06 09:38:42;;;;;;;10.20;9.20;;;19.50;99.90;;;;;;5127235;28;20173;-48
2023/08/06 09:41:27;;;;;;;10.47;9.57;;;19.60;99.90;;;;;;5146309;28;20201;-47
2023/08/06 09:43:58;;;;;;;9.73;8.83;;;19.70;99.90;;;;;;5132202;28;20194;-47
2023/08/06 09:46:32;;;;;;;19.17;9.17;;;19.70;99.90;;;;;;5152388;28;20457;-46
2023/08/06 09:49:03;;;;;;;10.07;9.27;;;19.50;99.90;;;;;;5128507;28;20953;-49
2023/08/06 09:51:34;;;;;;;9.63;8.80;;;19.40;99.90;;;;;;5143158;28;20960;-46
2023/08/06 09:54:07;;;;;;;9.57;8.43;;;19.40;99.90;;;;;;5146970;28;20424;-49
2023/08/06 09:56:38;;;;;;;9.33;8.30;;;19.50;99.90;;;;;;5138909;28;20477;-48
2023/08/06 09:59:11;;;;;;;8.10;7.40;;;19.60;99.90;;;;;;5115611;28;20499;-47
2023/08/06 10:01:41;;;;;;;7.87;7.10;;;19.50;99.90;;;;;;5135978;28;20281;-48
2023/08/06 10:04:16;;;;;;;9.90;9.00;;;19.50;99.90;;;;;;5140372;28;20537;-48
2023/08/06 10:06:50;;;;;;;9.80;8.50;;;19.40;99.90;;;;;;5127699;28;20197;-48
2023/08/06 10:09:21;;;;;;;9.17;7.87;;;19.50;99.90;;;;;;5118066;28;20482;-48
2023/08/06 10:11:55;;;;;;;8.47;7.67;;;19.60;99.90;;;;;;5125104;28;20477;-49
2023/08/06 10:14:32;;;;;;;6.80;6.20;;;19.70;99.90;;;;;;5134057;28;20872;-48
2023/08/06 10:17:04;;;;;;;6.63;6.00;;;19.80;99.90;;;;;;5139603;28;20433;-48
2023/08/06 10:19:35;;;;;;;4.40;4.20;;;19.80;99.90;;;;;;5106129;28;20441;-48
2023/08/06 10:22:12;;;;;;;4.87;4.47;;;19.80;99.90;;;;;;5140180;28;22322;-47
2023/08/06 10:24:54;;;;;;;5.97;5.57;;;19.80;99.90;;;;;;5137511;28;20476;-48
2023/08/06 10:27:30;;;;;;;3.30;3.10;;;19.70;99.90;;;;;;5109675;28;20457;-47
2023/08/06 10:30:43;;;;;;;4.27;4.03;;;19.60;99.90;;;;;;5122442;28;20460;-47
2023/08/06 10:33:16;;;;;;;3.50;3.20;;;19.50;99.90;;;;;;5049746;29;20448;-48
2023/08/06 10:35:50;;;;;;;2.70;2.60;;;19.50;99.90;;;;;;5037078;29;21039;-48
2023/08/06 10:38:31;;;;;;;7.00;4.20;;;19.40;99.90;;;;;;5093220;28;20436;-48
2023/08/06 10:41:03;;;;;;;5.03;4.57;;;19.50;99.90;;;;;;5136184;28;20445;-48
2023/08/06 10:43:41;;;;;;;4.43;3.90;;;19.60;99.90;;;;;;5120553;28;20443;-48
2023/08/06 10:46:27;;;;;;;3.80;3.53;;;19.80;99.90;;;;;;5139452;28;20432;-48
2023/08/06 10:48:58;;;;;;;4.80;4.40;;;19.90;99.90;;;;;;5141313;28;20485;-47
2023/08/06 10:51:29;;;;;;;3.53;3.33;;;20.10;99.90;;;;;;5144103;28;20568;-47
2023/08/06 10:53:59;;;;;;;4.10;3.80;;;20.00;99.90;;;;;;5142648;28;20185;-47
2023/08/06 10:56:31;;;;;;;5.10;4.70;;;19.90;99.90;;;;;;5124717;28;20761;-48
2023/08/06 10:59:01;;;;;;;4.23;3.90;;;19.80;99.90;;;;;;5136236;28;20209;-47
2023/08/06 11:01:34;;;;;;;4.97;4.50;;;19.80;99.90;;;;;;5138404;28;20488;-48
2023/08/06 11:04:05;;;;;;;4.23;3.90;;;19.70;99.90;;;;;;5124716;28;20182;-46
2023/08/06 11:06:36;;;;;;;5.33;3.80;;;19.70;99.90;;;;;;5130003;28;20839;-47
2023/08/06 11:09:07;;;;;;;5.03;4.57;;;19.70;99.90;;;;;;5143297;28;20178;-48
2023/08/06 11:11:37;;;;;;;4.20;4.00;;;19.80;99.90;;;;;;5146772;28;20194;-47
2023/08/06 11:14:15;;;;;;;5.97;5.30;;;19.80;99.90;;;;;;5140824;28;20948;-49
2023/08/06 11:16:46;;;;;;;6.07;4.33;;;19.90;99.90;;;;;;5143749;28;20181;-48
2023/08/06 11:19:16;;;;;;;5.13;4.73;;;19.90;99.90;;;;;;5145994;28;20544;-47
2023/08/06 11:21:47;;;;;;;5.10;4.57;;;20.00;99.90;;;;;;5141871;28;20277;-47
2023/08/06 11:24:18;;;;;;;5.73;5.33;;;20.10;99.90;;;;;;5129552;28;20233;-48
2023/08/06 11:26:48;;;;;;;6.43;5.80;;;20.20;99.90;;;;;;5121809;28;20197;-47
2023/08/06 11:29:19;;;;;;;5.80;5.30;;;20.20;99.90;;;;;;5112712;28;20191;-49
2023/08/06 11:31:50;;;;;;;5.80;5.30;;;20.10;99.90;;;;;;5140036;28;20210;-47
2023/08/06 11:34:20;;;;;;;5.23;4.83;;;20.00;99.90;;;;;;5118780;28;20185;-48
2023/08/06 11:36:51;;;;;;;6.70;6.20;;;20.00;99.90;;;;;;5145913;28;20256;-49
2023/08/06 11:39:22;;;;;;;14.73;5.47;;;20.10;99.90;;;;;;5142333;28;20273;-47
2023/08/06 11:41:52;;;;;;;6.20;5.80;;;20.10;99.90;;;;;;5126029;28;20272;-48
2023/08/06 11:44:24;;;;;;;6.13;4.70;;;20.00;99.90;;;;;;5136108;28;20198;-47
2023/08/06 11:46:56;;;;;;;6.20;5.60;;;19.90;99.90;;;;;;5140263;28;20208;-48
2023/08/06 11:49:41;;;;;;;9.30;6.80;;;20.00;99.90;;;;;;5123965;28;20437;-46
2023/08/06 11:52:17;;;;;;;7.10;6.53;;;19.90;99.90;;;;;;5142977;28;20444;-49
2023/08/06 11:54:59;;;;;;;14.67;7.03;;;19.80;99.90;;;;;;5146116;28;20443;-47
2023/08/06 11:57:34;;;;;;;7.07;6.47;;;19.80;99.90;;;;;;5144932;28;20444;-48
2023/08/06 12:00:07;;;;;;;6.37;5.87;;;19.80;99.90;;;;;;5126336;28;20572;-49
2023/08/06 12:02:42;;;;;;;7.23;6.53;;;19.70;99.90;;;;;;5108994;28;21667;-48
2023/08/06 12:05:17;;;;;;;8.77;6.73;;;19.80;99.90;;;;;;5137499;28;21039;-47
2023/08/06 12:07:53;;;;;;;7.63;6.83;;;19.80;99.90;;;;;;5146281;28;20476;-48
2023/08/06 12:10:28;;;;;;;7.40;6.80;;;19.80;99.90;;;;;;5136970;28;20461;-47
2023/08/06 12:13:00;;;;;;;7.50;6.90;;;19.90;99.90;;;;;;5104464;28;20441;-48
2023/08/06 12:15:30;;;;;;;8.30;6.90;;;19.90;99.90;;;;;;5139830;28;20442;-47
2023/08/06 12:18:01;;;;;;;12.13;7.67;;;19.90;99.90;;;;;;5129370;28;20463;-49
2023/08/06 12:20:31;;;;;;;7.77;6.73;;;19.80;99.90;;;;;;5144086;28;20299;-47
2023/08/06 12:23:02;;;;;;;8.27;7.57;;;19.70;99.90;;;;;;5131809;28;20579;-50
2023/08/06 12:25:33;;;;;;;7.97;6.63;;;19.80;99.90;;;;;;5139977;28;20191;-48
2023/08/06 12:28:05;;;;;;;8.43;6.80;;;19.70;99.90;;;;;;5145194;28;20546;-48
2023/08/06 12:30:36;;;;;;;6.80;6.20;;;19.60;99.90;;;;;;5134665;28;20685;-47
2023/08/06 12:33:07;;;;;;;7.20;6.53;;;19.60;99.90;;;;;;5123802;28;20472;-48
2023/08/06 12:35:38;;;;;;;6.50;6.00;;;19.80;99.90;;;;;;5125934;28;20186;-48
2023/08/06 12:38:08;;;;;;;7.10;6.33;;;19.90;99.90;;;;;;5123261;28;20252;-47
2023/08/06 12:40:39;;;;;;;8.77;8.07;;;20.10;99.90;;;;;;5145029;28;20966;-48
2023/08/06 12:43:10;;;;;;;8.60;6.60;;;20.20;99.90;;;;;;5125936;28;20213;-47
2023/08/06 12:45:41;;;;;;;6.43;5.87;;;20.20;99.90;;;;;;5140614;28;20229;-47
2023/08/06 12:48:11;;;;;;;7.87;7.07;;;20.10;99.90;;;;;;5136147;28;20205;-48
2023/08/06 12:50:42;;;;;;;7.27;6.50;;;20.00;99.90;;;;;;5141945;28;20244;-47
2023/08/06 12:53:12;;;;;;;7.43;6.20;;;20.00;99.90;;;;;;5126659;28;20265;-50
2023/08/06 12:55:43;;;;;;;6.87;6.23;;;20.00;99.90;;;;;;5137233;28;20245;-48
2023/08/06 12:58:14;;;;;;;6.23;5.60;;;19.80;99.90;;;;;;5135227;28;20214;-47
2023/08/06 13:00:44;;;;;;;7.40;6.80;;;19.80;99.90;;;;;;5127937;28;20264;-47
2023/08/06 13:03:15;;;;;;;11.20;8.63;;;19.70;99.90;;;;;;5124508;28;20197;-46
2023/08/06 13:05:45;;;;;;;12.63;6.67;;;19.70;99.90;;;;;;5135230;28;20293;-48